Wetterdaten: aktuell Donnerstag, 23.05.2019 11:05
Datum Zeit Temp. 2m rel. Feuchte Luftdruck Regen Wind Richtung Richtung Sonne ET UV-Index Solar Taupunkt Ben
23.05.2019 11:05 18,2 C 61 % 1018,9 hPa 0,0 mm 1,6 km/h (1 Bft) SW 227 60 min 0,4 mm 1,5 UV-I 820 W/m 10,6 C 4,4 km/h (1 Bft)
23.05.2019 10:05 15,5 C 70 % 1019,1 hPa 0,0 mm 2,6 km/h (1 Bft) O 84 55 min 0,2 mm 2,0 UV-I 713 W/m 10,1 C 11,1 km/h (2 Bft)
23.05.2019 09:05 13,0 C 80 % 1019,2 hPa 0,0 mm 2,1 km/h (1 Bft) O 84 0 min 0,1 mm 1,3 UV-I 174 W/m 9,6 C 8,9 km/h (2 Bft)
23.05.2019 08:05 10,8 C 87 % 1019,1 hPa 0,0 mm 2,1 km/h (1 Bft) O 84 0 min 0,0 mm 0,7 UV-I 80 W/m 8,7 C 6,7 km/h (2 Bft)
23.05.2019 07:05 9,3 C 91 % 1018,8 hPa 0,0 mm 0,7 km/h (0 Bft) W-SW 241 0 min 0,0 mm 0,0 UV-I 48 W/m 7,9 C 4,4 km/h (1 Bft)
23.05.2019 06:05 8,7 C 89 % 1018,9 hPa 0,0 mm 0,1 km/h (0 Bft) NW 315 0 min 0,0 mm 0,0 UV-I 16 W/m 7,0 C 2,2 km/h (1 Bft)
23.05.2019 05:05 9,5 C 87 % 1018,9 hPa 0,0 mm 0,0 km/h (0 Bft) NW 326 0 min 0,0 mm 0,0 UV-I 0 W/m 7,4 C 0,0 km/h (0 Bft)
23.05.2019 04:05 10,1 C 86 % 1019,2 hPa 0,0 mm 0,0 km/h (0 Bft) NW 326 0 min 0,0 mm 0,0 UV-I 0 W/m 7,9 C 0,0 km/h (0 Bft)
23.05.2019 03:05 10,5 C 85 % 1019,3 hPa 0,0 mm 2,5 km/h (1 Bft) O 84 0 min 0,0 mm 0,0 UV-I 0 W/m 8,1 C 6,7 km/h (2 Bft)
23.05.2019 02:05 11,2 C 81 % 1019,5 hPa 0,0 mm 1,8 km/h (1 Bft) O 84 0 min 0,0 mm 0,0 UV-I 0 W/m 8,1 C 4,4 km/h (1 Bft)
23.05.2019 01:05 11,7 C 84 % 1019,5 hPa 0,0 mm 0,0 km/h (0 Bft) O 84 0 min 0,0 mm 0,0 UV-I 0 W/m 9,1 C 0,0 km/h (0 Bft)
23.05.2019 00:05 12,8 C 83 % 1019,4 hPa 0,0 mm 0,0 km/h (0 Bft) O 84 0 min 0,0 mm 0,0 UV-I 0 W/m 10,0 C 0,0 km/h (0 Bft)
22.05.2019 23:05 14,0 C 81 % 1019,1 hPa 0,0 mm 0,0 km/h (0 Bft) O 84 0 min 0,0 mm 0,0 UV-I 0 W/m 10,8 C 0,0 km/h (0 Bft)
22.05.2019 22:05 14,8 C 77 % 1019,0 hPa 0,0 mm 0,0 km/h (0 Bft) O 84 0 min 0,0 mm 0,0 UV-I 0 W/m 10,8 C 0,0 km/h (0 Bft)
22.05.2019 21:05 16,0 C 72 % 1018,8 hPa 0,0 mm 0,0 km/h (0 Bft) N-NW 328 0 min 0,0 mm 0,0 UV-I 12 W/m 11,0 C 0,0 km/h (0 Bft)
22.05.2019 20:05 17,4 C 63 % 1018,8 hPa 0,0 mm 0,6 km/h (0 Bft) N-NW 330 0 min 0,1 mm 0,0 UV-I 57 W/m 10,3 C 4,4 km/h (1 Bft)
22.05.2019 19:05 17,7 C 58 % 1018,8 hPa 0,0 mm 0,0 km/h (0 Bft) O 84 10 min 0,1 mm 0,0 UV-I 142 W/m 9,3 C 0,0 km/h (0 Bft)
22.05.2019 18:05 17,9 C 54 % 1019,0 hPa 0,0 mm 0,0 km/h (0 Bft) O 84 10 min 0,1 mm 0,0 UV-I 196 W/m 8,5 C 0,0 km/h (0 Bft)
22.05.2019 17:05 18,5 C 54 % 1019,2 hPa 0,0 mm 2,2 km/h (1 Bft) O 84 20 min 0,2 mm 1,0 UV-I 531 W/m 9,0 C 6,7 km/h (2 Bft)
22.05.2019 16:05 19,2 C 51 % 1019,3 hPa 0,0 mm 1,0 km/h (0 Bft) W-NW 284 55 min 0,4 mm 2,1 UV-I 925 W/m 8,8 C 4,4 km/h (1 Bft)
22.05.2019 15:05 18,0 C 59 % 1019,5 hPa 0,0 mm 0,8 km/h (0 Bft) N-NO 26 55 min 0,5 mm 2,3 UV-I 899 W/m 9,9 C 11,1 km/h (2 Bft)
22.05.2019 14:05 16,9 C 65 % 1019,9 hPa 0,0 mm 4,8 km/h (1 Bft) O 84 60 min 0,5 mm 3,7 UV-I 1128 W/m 10,3 C 17,8 km/h (3 Bft)
22.05.2019 13:05 14,9 C 66 % 1020,1 hPa 0,0 mm 1,0 km/h (0 Bft) O 84 55 min 0,4 mm 4,4 UV-I 1118 W/m 8,6 C 4,4 km/h (1 Bft)
22.05.2019 12:05 13,4 C 74 % 1020,1 hPa 0,0 mm 4,2 km/h (1 Bft) O 84 0 min 0,3 mm 2,4 UV-I 383 W/m 8,9 C 17,8 km/h (3 Bft)
22.05.2019 12:00 13,3 C 73 % 1020,2 hPa 0,0 mm 0,7 km/h (0 Bft) O 84 0 min 0,3 mm 3,3 UV-I 404 W/m 8,6 C 4,4 km/h (1 Bft)
_ Min-Zeit 06:05 16:05 20:20 - 14:40 - - - - - - 05:45 16:40
Minimum _ 8,6 C 51 % 1018,7 hPa - 0,0 km/h (0 Bft) - - - - - - 6,8 C 0,0 km/h (0 Bft)
_ Max-Zeit 16:05 06:15 12:15 12:00 12:15 - - 12:10 14:05 12:30 13:55 20:40 15:00
Maximum _ 19,2 C 91 % 1020,3 hPa 0,0 mm 7,0 km/h
O (2 Bft)
- - 5 min 0,5 mm 4,8 UV-I 1177 W/m 11,6 C 22,2 km/h
N-NW (4 Bft)
Durchschnitt _ 14,0 C 74 % 1019,3 hPa #0,0 mm 1,3 km/h (1 Bft) O - #1:55 h #0,686 mm 1,7 UV-I 294 W/m 9,2 C 4,9 km/h (1 Bft)



© 1998 - 2019 www.pulheimwetter.de